sensor_id;sensor_type;location;lat;lon;timestamp;P1;durP1;ratioP1;P2;durP2;ratioP2
27899;SDS011;15243;50.726;7.080;2023-06-22T00:00:15;10.75;;;8.18;;
27899;SDS011;15243;50.726;7.080;2023-06-22T00:02:42;10.80;;;7.55;;
27899;SDS011;15243;50.726;7.080;2023-06-22T00:05:09;13.00;;;7.63;;
27899;SDS011;15243;50.726;7.080;2023-06-22T00:07:36;7.63;;;6.82;;
27899;SDS011;15243;50.726;7.080;2023-06-22T00:10:03;9.98;;;7.90;;
27899;SDS011;15243;50.726;7.080;2023-06-22T00:12:30;11.88;;;7.72;;
27899;SDS011;15243;50.726;7.080;2023-06-22T00:14:58;12.15;;;7.78;;
27899;SDS011;15243;50.726;7.080;2023-06-22T00:17:25;10.50;;;7.50;;
27899;SDS011;15243;50.726;7.080;2023-06-22T00:19:52;8.30;;;7.45;;
27899;SDS011;15243;50.726;7.080;2023-06-22T00:22:21;12.75;;;8.18;;
27899;SDS011;15243;50.726;7.080;2023-06-22T00:24:55;10.50;;;7.05;;
27899;SDS011;15243;50.726;7.080;2023-06-22T00:27:23;11.98;;;7.50;;
27899;SDS011;15243;50.726;7.080;2023-06-22T00:29:50;9.82;;;7.75;;
27899;SDS011;15243;50.726;7.080;2023-06-22T00:32:18;12.98;;;7.60;;
27899;SDS011;15243;50.726;7.080;2023-06-22T00:34:45;11.07;;;7.60;;
27899;SDS011;15243;50.726;7.080;2023-06-22T00:40:11;9.43;;;8.20;;
27899;SDS011;15243;50.726;7.080;2023-06-22T00:42:39;11.55;;;7.45;;
27899;SDS011;15243;50.726;7.080;2023-06-22T00:45:06;13.02;;;7.68;;
27899;SDS011;15243;50.726;7.080;2023-06-22T00:47:34;15.95;;;7.85;;
27899;SDS011;15243;50.726;7.080;2023-06-22T00:50:02;15.10;;;8.43;;
27899;SDS011;15243;50.726;7.080;2023-06-22T00:52:33;9.52;;;7.75;;
27899;SDS011;15243;50.726;7.080;2023-06-22T00:55:02;10.65;;;7.70;;
27899;SDS011;15243;50.726;7.080;2023-06-22T00:57:29;11.68;;;7.93;;
27899;SDS011;15243;50.726;7.080;2023-06-22T00:59:57;12.18;;;8.38;;
27899;SDS011;15243;50.726;7.080;2023-06-22T01:02:24;9.90;;;7.97;;
27899;SDS011;15243;50.726;7.080;2023-06-22T01:04:52;12.80;;;7.20;;
27899;SDS011;15243;50.726;7.080;2023-06-22T01:10:01;12.10;;;7.57;;
27899;SDS011;15243;50.726;7.080;2023-06-22T01:12:49;9.80;;;7.38;;
27899;SDS011;15243;50.726;7.080;2023-06-22T01:15:39;10.07;;;7.45;;
27899;SDS011;15243;50.726;7.080;2023-06-22T01:18:12;12.33;;;7.43;;
27899;SDS011;15243;50.726;7.080;2023-06-22T01:20:41;10.95;;;8.02;;
27899;SDS011;15243;50.726;7.080;2023-06-22T01:23:10;9.95;;;7.22;;
27899;SDS011;15243;50.726;7.080;2023-06-22T01:25:48;10.55;;;7.80;;
27899;SDS011;15243;50.726;7.080;2023-06-22T01:31:18;12.82;;;7.72;;
27899;SDS011;15243;50.726;7.080;2023-06-22T01:33:48;7.80;;;7.00;;
27899;SDS011;15243;50.726;7.080;2023-06-22T01:36:27;11.85;;;7.63;;
27899;SDS011;15243;50.726;7.080;2023-06-22T01:39:14;11.15;;;7.28;;
27899;SDS011;15243;50.726;7.080;2023-06-22T01:41:42;8.85;;;7.20;;
27899;SDS011;15243;50.726;7.080;2023-06-22T01:44:10;9.05;;;7.30;;
27899;SDS011;15243;50.726;7.080;2023-06-22T01:46:38;13.82;;;7.88;;
27899;SDS011;15243;50.726;7.080;2023-06-22T01:49:06;16.40;;;8.13;;
27899;SDS011;15243;50.726;7.080;2023-06-22T01:51:34;12.30;;;7.18;;
27899;SDS011;15243;50.726;7.080;2023-06-22T01:54:01;12.25;;;7.43;;
27899;SDS011;15243;50.726;7.080;2023-06-22T01:56:29;10.02;;;7.68;;
27899;SDS011;15243;50.726;7.080;2023-06-22T01:59:04;10.40;;;8.30;;
27899;SDS011;15243;50.726;7.080;2023-06-22T02:02:08;9.98;;;8.35;;
27899;SDS011;15243;50.726;7.080;2023-06-22T02:05:01;10.10;;;8.30;;
27899;SDS011;15243;50.726;7.080;2023-06-22T02:10:00;17.05;;;8.00;;
27899;SDS011;15243;50.726;7.080;2023-06-22T02:12:30;12.15;;;8.05;;
27899;SDS011;15243;50.726;7.080;2023-06-22T02:14:58;13.13;;;8.20;;
27899;SDS011;15243;50.726;7.080;2023-06-22T02:17:27;12.40;;;8.15;;
27899;SDS011;15243;50.726;7.080;2023-06-22T02:20:01;11.90;;;8.20;;
27899;SDS011;15243;50.726;7.080;2023-06-22T02:22:33;12.02;;;7.55;;
27899;SDS011;15243;50.726;7.080;2023-06-22T02:25:00;9.35;;;7.55;;
27899;SDS011;15243;50.726;7.080;2023-06-22T02:27:27;13.15;;;8.48;;
27899;SDS011;15243;50.726;7.080;2023-06-22T02:29:55;10.07;;;8.07;;
27899;SDS011;15243;50.726;7.080;2023-06-22T02:32:23;12.32;;;8.60;;
27899;SDS011;15243;50.726;7.080;2023-06-22T02:34:50;10.18;;;7.30;;
27899;SDS011;15243;50.726;7.080;2023-06-22T02:37:18;11.45;;;7.72;;
27899;SDS011;15243;50.726;7.080;2023-06-22T02:39:45;8.73;;;7.30;;
27899;SDS011;15243;50.726;7.080;2023-06-22T02:42:12;11.75;;;7.88;;
27899;SDS011;15243;50.726;7.080;2023-06-22T02:44:39;13.63;;;8.60;;
27899;SDS011;15243;50.726;7.080;2023-06-22T02:47:06;12.57;;;8.45;;
27899;SDS011;15243;50.726;7.080;2023-06-22T02:49:33;13.25;;;8.68;;
27899;SDS011;15243;50.726;7.080;2023-06-22T02:52:01;16.00;;;8.40;;
27899;SDS011;15243;50.726;7.080;2023-06-22T02:54:28;13.27;;;7.63;;
27899;SDS011;15243;50.726;7.080;2023-06-22T02:56:55;12.75;;;8.38;;
27899;SDS011;15243;50.726;7.080;2023-06-22T02:59:22;14.40;;;8.70;;
27899;SDS011;15243;50.726;7.080;2023-06-22T03:01:50;12.25;;;8.68;;
27899;SDS011;15243;50.726;7.080;2023-06-22T03:04:18;13.85;;;7.70;;
27899;SDS011;15243;50.726;7.080;2023-06-22T03:06:45;13.82;;;8.30;;
27899;SDS011;15243;50.726;7.080;2023-06-22T03:09:17;15.20;;;8.63;;
27899;SDS011;15243;50.726;7.080;2023-06-22T03:11:44;16.95;;;9.18;;
27899;SDS011;15243;50.726;7.080;2023-06-22T03:14:11;17.00;;;8.90;;
27899;SDS011;15243;50.726;7.080;2023-06-22T03:16:38;12.98;;;8.63;;
27899;SDS011;15243;50.726;7.080;2023-06-22T03:19:07;13.68;;;8.30;;
27899;SDS011;15243;50.726;7.080;2023-06-22T03:21:34;10.48;;;8.57;;
27899;SDS011;15243;50.726;7.080;2023-06-22T03:24:01;14.68;;;8.55;;
27899;SDS011;15243;50.726;7.080;2023-06-22T03:26:28;10.27;;;8.15;;
27899;SDS011;15243;50.726;7.080;2023-06-22T03:28:56;12.60;;;9.55;;
27899;SDS011;15243;50.726;7.080;2023-06-22T03:31:23;13.07;;;9.50;;
27899;SDS011;15243;50.726;7.080;2023-06-22T03:33:51;13.70;;;9.18;;
27899;SDS011;15243;50.726;7.080;2023-06-22T03:36:19;11.60;;;9.13;;
27899;SDS011;15243;50.726;7.080;2023-06-22T03:38:47;18.90;;;9.02;;
27899;SDS011;15243;50.726;7.080;2023-06-22T03:41:14;14.73;;;8.30;;
27899;SDS011;15243;50.726;7.080;2023-06-22T03:43:42;12.30;;;8.85;;
27899;SDS011;15243;50.726;7.080;2023-06-22T03:46:09;12.98;;;8.13;;
27899;SDS011;15243;50.726;7.080;2023-06-22T03:48:36;14.98;;;9.23;;
27899;SDS011;15243;50.726;7.080;2023-06-22T03:51:04;15.57;;;9.10;;
27899;SDS011;15243;50.726;7.080;2023-06-22T03:53:32;10.82;;;8.52;;
27899;SDS011;15243;50.726;7.080;2023-06-22T03:55:59;14.88;;;8.45;;
27899;SDS011;15243;50.726;7.080;2023-06-22T03:58:26;15.02;;;9.10;;
27899;SDS011;15243;50.726;7.080;2023-06-22T04:00:53;16.38;;;9.50;;
27899;SDS011;15243;50.726;7.080;2023-06-22T04:03:20;16.48;;;9.68;;
27899;SDS011;15243;50.726;7.080;2023-06-22T04:05:47;10.23;;;8.55;;
27899;SDS011;15243;50.726;7.080;2023-06-22T04:08:15;10.68;;;8.93;;
27899;SDS011;15243;50.726;7.080;2023-06-22T04:10:42;15.23;;;8.73;;
27899;SDS011;15243;50.726;7.080;2023-06-22T04:13:09;10.63;;;8.40;;
27899;SDS011;15243;50.726;7.080;2023-06-22T04:15:37;14.70;;;9.02;;
27899;SDS011;15243;50.726;7.080;2023-06-22T04:18:04;14.75;;;9.98;;
27899;SDS011;15243;50.726;7.080;2023-06-22T04:20:31;12.07;;;8.93;;
27899;SDS011;15243;50.726;7.080;2023-06-22T04:22:59;17.25;;;9.13;;
27899;SDS011;15243;50.726;7.080;2023-06-22T04:25:26;12.50;;;7.95;;
27899;SDS011;15243;50.726;7.080;2023-06-22T04:27:53;15.88;;;9.52;;
27899;SDS011;15243;50.726;7.080;2023-06-22T04:30:20;16.45;;;9.13;;
27899;SDS011;15243;50.726;7.080;2023-06-22T04:32:48;15.23;;;8.77;;
27899;SDS011;15243;50.726;7.080;2023-06-22T04:35:23;13.65;;;9.57;;
27899;SDS011;15243;50.726;7.080;2023-06-22T04:37:51;9.68;;;8.60;;
27899;SDS011;15243;50.726;7.080;2023-06-22T04:40:24;10.38;;;8.68;;
27899;SDS011;15243;50.726;7.080;2023-06-22T04:42:52;13.77;;;8.40;;
27899;SDS011;15243;50.726;7.080;2023-06-22T04:45:20;15.40;;;10.20;;
27899;SDS011;15243;50.726;7.080;2023-06-22T04:47:48;12.93;;;9.15;;
27899;SDS011;15243;50.726;7.080;2023-06-22T04:50:15;12.07;;;9.20;;
27899;SDS011;15243;50.726;7.080;2023-06-22T04:52:44;12.50;;;9.32;;
27899;SDS011;15243;50.726;7.080;2023-06-22T04:55:12;17.92;;;9.52;;
27899;SDS011;15243;50.726;7.080;2023-06-22T04:57:41;12.35;;;9.77;;
27899;SDS011;15243;50.726;7.080;2023-06-22T05:00:11;12.95;;;11.27;;
27899;SDS011;15243;50.726;7.080;2023-06-22T05:02:39;17.67;;;12.25;;
27899;SDS011;15243;50.726;7.080;2023-06-22T05:05:08;18.95;;;12.40;;
27899;SDS011;15243;50.726;7.080;2023-06-22T05:07:41;15.73;;;10.65;;
27899;SDS011;15243;50.726;7.080;2023-06-22T05:10:12;17.95;;;10.93;;
27899;SDS011;15243;50.726;7.080;2023-06-22T05:12:40;18.17;;;10.93;;
27899;SDS011;15243;50.726;7.080;2023-06-22T05:15:07;12.20;;;10.60;;
27899;SDS011;15243;50.726;7.080;2023-06-22T05:17:35;18.35;;;11.65;;
27899;SDS011;15243;50.726;7.080;2023-06-22T05:20:06;13.90;;;11.05;;
27899;SDS011;15243;50.726;7.080;2023-06-22T05:22:35;15.07;;;11.20;;
27899;SDS011;15243;50.726;7.080;2023-06-22T05:25:02;13.88;;;11.20;;
27899;SDS011;15243;50.726;7.080;2023-06-22T05:27:31;14.45;;;10.73;;
27899;SDS011;15243;50.726;7.080;2023-06-22T05:29:58;13.35;;;10.80;;
27899;SDS011;15243;50.726;7.080;2023-06-22T05:32:25;14.45;;;10.60;;
27899;SDS011;15243;50.726;7.080;2023-06-22T05:34:52;16.17;;;10.80;;
27899;SDS011;15243;50.726;7.080;2023-06-22T05:37:19;14.75;;;11.75;;
27899;SDS011;15243;50.726;7.080;2023-06-22T05:39:46;12.95;;;11.35;;
27899;SDS011;15243;50.726;7.080;2023-06-22T05:42:13;18.48;;;11.23;;
27899;SDS011;15243;50.726;7.080;2023-06-22T05:44:40;13.88;;;10.60;;
27899;SDS011;15243;50.726;7.080;2023-06-22T05:47:07;17.30;;;10.98;;
27899;SDS011;15243;50.726;7.080;2023-06-22T05:49:34;18.38;;;11.48;;
27899;SDS011;15243;50.726;7.080;2023-06-22T05:52:01;15.43;;;10.85;;
27899;SDS011;15243;50.726;7.080;2023-06-22T05:54:29;15.45;;;10.80;;
27899;SDS011;15243;50.726;7.080;2023-06-22T05:56:57;16.13;;;10.32;;
27899;SDS011;15243;50.726;7.080;2023-06-22T05:59:23;13.50;;;9.52;;
27899;SDS011;15243;50.726;7.080;2023-06-22T06:01:50;15.90;;;10.15;;
27899;SDS011;15243;50.726;7.080;2023-06-22T06:04:18;15.80;;;10.25;;
27899;SDS011;15243;50.726;7.080;2023-06-22T06:06:45;13.50;;;9.65;;
27899;SDS011;15243;50.726;7.080;2023-06-22T06:09:16;14.93;;;10.15;;
27899;SDS011;15243;50.726;7.080;2023-06-22T06:11:44;14.05;;;10.27;;
27899;SDS011;15243;50.726;7.080;2023-06-22T06:14:11;16.00;;;10.55;;
27899;SDS011;15243;50.726;7.080;2023-06-22T06:16:38;18.20;;;11.55;;
27899;SDS011;15243;50.726;7.080;2023-06-22T06:19:05;14.35;;;10.30;;
27899;SDS011;15243;50.726;7.080;2023-06-22T06:21:32;17.38;;;10.20;;
27899;SDS011;15243;50.726;7.080;2023-06-22T06:24:00;15.65;;;10.52;;
27899;SDS011;15243;50.726;7.080;2023-06-22T06:26:27;15.05;;;10.65;;
27899;SDS011;15243;50.726;7.080;2023-06-22T06:28:56;14.85;;;12.60;;
27899;SDS011;15243;50.726;7.080;2023-06-22T06:31:25;16.45;;;11.50;;
27899;SDS011;15243;50.726;7.080;2023-06-22T06:33:55;15.10;;;12.68;;
27899;SDS011;15243;50.726;7.080;2023-06-22T06:36:22;21.33;;;13.65;;
27899;SDS011;15243;50.726;7.080;2023-06-22T06:38:49;15.60;;;12.45;;
27899;SDS011;15243;50.726;7.080;2023-06-22T06:41:16;19.98;;;12.52;;
27899;SDS011;15243;50.726;7.080;2023-06-22T06:43:43;17.83;;;13.75;;
27899;SDS011;15243;50.726;7.080;2023-06-22T06:46:11;20.67;;;13.27;;
27899;SDS011;15243;50.726;7.080;2023-06-22T06:48:38;16.13;;;13.40;;
27899;SDS011;15243;50.726;7.080;2023-06-22T06:51:06;15.13;;;13.52;;
27899;SDS011;15243;50.726;7.080;2023-06-22T06:53:36;18.73;;;13.07;;
27899;SDS011;15243;50.726;7.080;2023-06-22T06:56:04;18.20;;;13.10;;
27899;SDS011;15243;50.726;7.080;2023-06-22T06:58:31;21.17;;;13.52;;
27899;SDS011;15243;50.726;7.080;2023-06-22T07:00:59;15.57;;;13.75;;
27899;SDS011;15243;50.726;7.080;2023-06-22T07:03:26;17.30;;;12.85;;
27899;SDS011;15243;50.726;7.080;2023-06-22T07:05:53;19.35;;;13.48;;
27899;SDS011;15243;50.726;7.080;2023-06-22T07:08:20;18.17;;;13.45;;
27899;SDS011;15243;50.726;7.080;2023-06-22T07:10:48;14.65;;;11.43;;
27899;SDS011;15243;50.726;7.080;2023-06-22T07:13:15;18.83;;;13.15;;
27899;SDS011;15243;50.726;7.080;2023-06-22T07:15:43;17.83;;;12.02;;
27899;SDS011;15243;50.726;7.080;2023-06-22T07:18:10;17.13;;;11.93;;
27899;SDS011;15243;50.726;7.080;2023-06-22T07:20:37;20.98;;;12.48;;
27899;SDS011;15243;50.726;7.080;2023-06-22T07:23:05;15.75;;;12.68;;
27899;SDS011;15243;50.726;7.080;2023-06-22T07:25:32;14.63;;;11.88;;
27899;SDS011;15243;50.726;7.080;2023-06-22T07:30:28;17.73;;;12.07;;
27899;SDS011;15243;50.726;7.080;2023-06-22T07:32:57;14.70;;;11.07;;
27899;SDS011;15243;50.726;7.080;2023-06-22T07:35:25;18.77;;;13.13;;
27899;SDS011;15243;50.726;7.080;2023-06-22T07:37:52;19.77;;;12.63;;
27899;SDS011;15243;50.726;7.080;2023-06-22T07:40:19;13.00;;;11.45;;
27899;SDS011;15243;50.726;7.080;2023-06-22T07:42:47;16.73;;;11.70;;
27899;SDS011;15243;50.726;7.080;2023-06-22T07:45:18;15.23;;;10.23;;
27899;SDS011;15243;50.726;7.080;2023-06-22T07:47:45;15.68;;;10.25;;
27899;SDS011;15243;50.726;7.080;2023-06-22T07:50:12;16.02;;;10.18;;
27899;SDS011;15243;50.726;7.080;2023-06-22T07:52:39;15.80;;;10.23;;
27899;SDS011;15243;50.726;7.080;2023-06-22T07:55:06;13.20;;;9.75;;
27899;SDS011;15243;50.726;7.080;2023-06-22T07:57:33;11.70;;;10.18;;
27899;SDS011;15243;50.726;7.080;2023-06-22T08:00:01;11.88;;;10.23;;
27899;SDS011;15243;50.726;7.080;2023-06-22T08:02:41;11.68;;;9.40;;
27899;SDS011;15243;50.726;7.080;2023-06-22T08:05:09;14.43;;;9.82;;
27899;SDS011;15243;50.726;7.080;2023-06-22T08:07:40;11.18;;;9.95;;
27899;SDS011;15243;50.726;7.080;2023-06-22T08:10:10;16.77;;;10.65;;
27899;SDS011;15243;50.726;7.080;2023-06-22T08:12:41;13.48;;;9.80;;
27899;SDS011;15243;50.726;7.080;2023-06-22T08:15:08;13.00;;;9.57;;
27899;SDS011;15243;50.726;7.080;2023-06-22T08:17:37;10.57;;;9.23;;
27899;SDS011;15243;50.726;7.080;2023-06-22T08:20:05;11.30;;;9.73;;
27899;SDS011;15243;50.726;7.080;2023-06-22T08:22:38;13.63;;;9.35;;
27899;SDS011;15243;50.726;7.080;2023-06-22T08:25:09;13.52;;;9.85;;
27899;SDS011;15243;50.726;7.080;2023-06-22T08:27:37;17.40;;;9.60;;
27899;SDS011;15243;50.726;7.080;2023-06-22T08:30:04;13.52;;;10.05;;
27899;SDS011;15243;50.726;7.080;2023-06-22T08:32:32;14.98;;;8.90;;
27899;SDS011;15243;50.726;7.080;2023-06-22T08:35:00;11.20;;;9.93;;
27899;SDS011;15243;50.726;7.080;2023-06-22T08:37:27;14.30;;;9.20;;
27899;SDS011;15243;50.726;7.080;2023-06-22T08:40:05;12.75;;;9.80;;
27899;SDS011;15243;50.726;7.080;2023-06-22T08:42:37;14.07;;;9.23;;
27899;SDS011;15243;50.726;7.080;2023-06-22T08:45:06;13.02;;;8.95;;
27899;SDS011;15243;50.726;7.080;2023-06-22T08:47:34;13.63;;;8.73;;
27899;SDS011;15243;50.726;7.080;2023-06-22T08:50:01;13.00;;;9.73;;
27899;SDS011;15243;50.726;7.080;2023-06-22T08:52:29;16.48;;;9.50;;
27899;SDS011;15243;50.726;7.080;2023-06-22T08:54:56;11.32;;;9.68;;
27899;SDS011;15243;50.726;7.080;2023-06-22T08:57:25;16.35;;;9.18;;
27899;SDS011;15243;50.726;7.080;2023-06-22T08:59:52;12.52;;;9.65;;
27899;SDS011;15243;50.726;7.080;2023-06-22T09:02:19;11.88;;;9.30;;
27899;SDS011;15243;50.726;7.080;2023-06-22T09:04:46;11.15;;;8.90;;
27899;SDS011;15243;50.726;7.080;2023-06-22T09:07:15;11.32;;;8.10;;
27899;SDS011;15243;50.726;7.080;2023-06-22T09:09:49;13.35;;;9.32;;
27899;SDS011;15243;50.726;7.080;2023-06-22T09:12:16;13.75;;;9.07;;
27899;SDS011;15243;50.726;7.080;2023-06-22T09:14:46;11.02;;;9.15;;
27899;SDS011;15243;50.726;7.080;2023-06-22T09:17:13;11.85;;;9.15;;
27899;SDS011;15243;50.726;7.080;2023-06-22T09:19:41;10.00;;;8.88;;
27899;SDS011;15243;50.726;7.080;2023-06-22T09:22:08;11.27;;;8.88;;
27899;SDS011;15243;50.726;7.080;2023-06-22T09:24:36;12.27;;;9.02;;
27899;SDS011;15243;50.726;7.080;2023-06-22T09:27:03;12.13;;;8.75;;
27899;SDS011;15243;50.726;7.080;2023-06-22T09:29:30;12.02;;;8.98;;
27899;SDS011;15243;50.726;7.080;2023-06-22T09:32:00;11.15;;;8.35;;
27899;SDS011;15243;50.726;7.080;2023-06-22T09:34:28;11.70;;;8.35;;
27899;SDS011;15243;50.726;7.080;2023-06-22T09:36:58;14.57;;;9.45;;
27899;SDS011;15243;50.726;7.080;2023-06-22T09:39:27;11.38;;;8.63;;
27899;SDS011;15243;50.726;7.080;2023-06-22T09:41:54;9.82;;;8.63;;
27899;SDS011;15243;50.726;7.080;2023-06-22T09:44:21;11.30;;;8.57;;
27899;SDS011;15243;50.726;7.080;2023-06-22T09:46:48;12.90;;;8.38;;
27899;SDS011;15243;50.726;7.080;2023-06-22T09:49:15;13.60;;;9.55;;
27899;SDS011;15243;50.726;7.080;2023-06-22T09:51:42;10.25;;;9.20;;
27899;SDS011;15243;50.726;7.080;2023-06-22T09:54:09;12.80;;;8.95;;
27899;SDS011;15243;50.726;7.080;2023-06-22T09:56:36;17.13;;;8.70;;
27899;SDS011;15243;50.726;7.080;2023-06-22T09:59:04;13.93;;;9.10;;
27899;SDS011;15243;50.726;7.080;2023-06-22T10:01:43;12.20;;;9.20;;
27899;SDS011;15243;50.726;7.080;2023-06-22T10:04:10;11.77;;;8.82;;
27899;SDS011;15243;50.726;7.080;2023-06-22T10:06:38;12.73;;;9.55;;
27899;SDS011;15243;50.726;7.080;2023-06-22T10:09:07;10.18;;;8.90;;
27899;SDS011;15243;50.726;7.080;2023-06-22T10:11:34;11.93;;;9.25;;
27899;SDS011;15243;50.726;7.080;2023-06-22T10:14:02;12.18;;;9.48;;
27899;SDS011;15243;50.726;7.080;2023-06-22T10:16:31;11.27;;;9.57;;
27899;SDS011;15243;50.726;7.080;2023-06-22T10:18:59;13.38;;;9.65;;
27899;SDS011;15243;50.726;7.080;2023-06-22T10:21:27;13.10;;;10.00;;
27899;SDS011;15243;50.726;7.080;2023-06-22T10:23:55;13.25;;;9.20;;
27899;SDS011;15243;50.726;7.080;2023-06-22T10:26:22;11.38;;;9.60;;
27899;SDS011;15243;50.726;7.080;2023-06-22T10:28:50;13.68;;;10.07;;
27899;SDS011;15243;50.726;7.080;2023-06-22T10:31:32;13.35;;;9.40;;
27899;SDS011;15243;50.726;7.080;2023-06-22T10:33:59;14.80;;;10.05;;
27899;SDS011;15243;50.726;7.080;2023-06-22T10:36:26;11.30;;;10.10;;
27899;SDS011;15243;50.726;7.080;2023-06-22T10:38:53;18.67;;;12.23;;
27899;SDS011;15243;50.726;7.080;2023-06-22T10:41:21;13.80;;;11.15;;
27899;SDS011;15243;50.726;7.080;2023-06-22T10:43:48;12.35;;;11.10;;
27899;SDS011;15243;50.726;7.080;2023-06-22T10:46:15;16.10;;;12.88;;
27899;SDS011;15243;50.726;7.080;2023-06-22T10:48:43;17.95;;;13.57;;
27899;SDS011;15243;50.726;7.080;2023-06-22T10:51:10;17.88;;;13.77;;
27899;SDS011;15243;50.726;7.080;2023-06-22T10:53:37;20.23;;;15.75;;
27899;SDS011;15243;50.726;7.080;2023-06-22T10:56:04;24.38;;;17.67;;
27899;SDS011;15243;50.726;7.080;2023-06-22T10:58:31;22.48;;;16.98;;
27899;SDS011;15243;50.726;7.080;2023-06-22T11:00:58;21.20;;;18.00;;
27899;SDS011;15243;50.726;7.080;2023-06-22T11:03:25;22.58;;;19.00;;
27899;SDS011;15243;50.726;7.080;2023-06-22T11:05:52;25.70;;;20.33;;
27899;SDS011;15243;50.726;7.080;2023-06-22T11:08:19;28.27;;;20.98;;
27899;SDS011;15243;50.726;7.080;2023-06-22T11:10:46;28.08;;;20.92;;
27899;SDS011;15243;50.726;7.080;2023-06-22T11:13:13;31.05;;;20.70;;
27899;SDS011;15243;50.726;7.080;2023-06-22T11:15:40;29.42;;;22.13;;
27899;SDS011;15243;50.726;7.080;2023-06-22T11:18:07;24.45;;;19.90;;
27899;SDS011;15243;50.726;7.080;2023-06-22T11:20:34;24.52;;;19.02;;
27899;SDS011;15243;50.726;7.080;2023-06-22T11:23:05;25.77;;;19.67;;
27899;SDS011;15243;50.726;7.080;2023-06-22T11:25:33;29.27;;;21.05;;
27899;SDS011;15243;50.726;7.080;2023-06-22T11:28:04;27.17;;;21.40;;
27899;SDS011;15243;50.726;7.080;2023-06-22T11:30:31;24.20;;;20.33;;
27899;SDS011;15243;50.726;7.080;2023-06-22T11:32:58;22.63;;;18.65;;
27899;SDS011;15243;50.726;7.080;2023-06-22T11:35:26;22.35;;;18.98;;
27899;SDS011;15243;50.726;7.080;2023-06-22T11:37:53;21.67;;;18.02;;
27899;SDS011;15243;50.726;7.080;2023-06-22T11:40:22;26.25;;;19.05;;
27899;SDS011;15243;50.726;7.080;2023-06-22T11:42:49;22.80;;;16.02;;
27899;SDS011;15243;50.726;7.080;2023-06-22T11:45:16;16.67;;;13.75;;
27899;SDS011;15243;50.726;7.080;2023-06-22T11:47:44;17.80;;;11.98;;
27899;SDS011;15243;50.726;7.080;2023-06-22T11:50:11;14.10;;;12.10;;
27899;SDS011;15243;50.726;7.080;2023-06-22T11:52:38;16.73;;;13.85;;
27899;SDS011;15243;50.726;7.080;2023-06-22T11:55:05;16.15;;;14.48;;
27899;SDS011;15243;50.726;7.080;2023-06-22T11:57:33;19.48;;;14.98;;
27899;SDS011;15243;50.726;7.080;2023-06-22T12:00:01;16.98;;;14.75;;
27899;SDS011;15243;50.726;7.080;2023-06-22T12:02:43;15.98;;;14.02;;
27899;SDS011;15243;50.726;7.080;2023-06-22T12:05:11;16.85;;;14.95;;
27899;SDS011;15243;50.726;7.080;2023-06-22T12:07:39;17.13;;;14.98;;
27899;SDS011;15243;50.726;7.080;2023-06-22T12:10:06;20.38;;;14.43;;
27899;SDS011;15243;50.726;7.080;2023-06-22T12:12:33;18.80;;;15.05;;
27899;SDS011;15243;50.726;7.080;2023-06-22T12:15:00;19.15;;;15.05;;
27899;SDS011;15243;50.726;7.080;2023-06-22T12:17:30;19.08;;;15.48;;
27899;SDS011;15243;50.726;7.080;2023-06-22T12:19:58;18.02;;;15.65;;
27899;SDS011;15243;50.726;7.080;2023-06-22T12:22:25;21.42;;;15.98;;
27899;SDS011;15243;50.726;7.080;2023-06-22T12:24:52;17.10;;;15.32;;
27899;SDS011;15243;50.726;7.080;2023-06-22T12:27:19;16.33;;;14.60;;
27899;SDS011;15243;50.726;7.080;2023-06-22T12:29:46;17.48;;;13.80;;
27899;SDS011;15243;50.726;7.080;2023-06-22T12:32:14;15.40;;;12.95;;
27899;SDS011;15243;50.726;7.080;2023-06-22T12:34:42;14.85;;;11.85;;
27899;SDS011;15243;50.726;7.080;2023-06-22T12:37:10;14.60;;;12.13;;
27899;SDS011;15243;50.726;7.080;2023-06-22T12:39:40;13.13;;;10.45;;
27899;SDS011;15243;50.726;7.080;2023-06-22T12:42:07;11.70;;;9.05;;
27899;SDS011;15243;50.726;7.080;2023-06-22T12:44:37;11.70;;;9.05;;
27899;SDS011;15243;50.726;7.080;2023-06-22T12:47:07;11.13;;;9.27;;
27899;SDS011;15243;50.726;7.080;2023-06-22T12:49:35;11.70;;;8.27;;
27899;SDS011;15243;50.726;7.080;2023-06-22T12:52:02;12.57;;;8.23;;
27899;SDS011;15243;50.726;7.080;2023-06-22T12:54:30;9.85;;;7.80;;
27899;SDS011;15243;50.726;7.080;2023-06-22T12:57:05;9.20;;;7.32;;
27899;SDS011;15243;50.726;7.080;2023-06-22T12:59:32;8.30;;;7.18;;
27899;SDS011;15243;50.726;7.080;2023-06-22T13:02:00;11.38;;;7.32;;
27899;SDS011;15243;50.726;7.080;2023-06-22T13:04:28;9.48;;;8.15;;
27899;SDS011;15243;50.726;7.080;2023-06-22T13:06:55;9.63;;;7.80;;
27899;SDS011;15243;50.726;7.080;2023-06-22T13:09:23;12.05;;;7.43;;
27899;SDS011;15243;50.726;7.080;2023-06-22T13:11:49;8.13;;;6.95;;
27899;SDS011;15243;50.726;7.080;2023-06-22T13:14:17;8.20;;;6.85;;
27899;SDS011;15243;50.726;7.080;2023-06-22T13:16:44;9.18;;;7.00;;
27899;SDS011;15243;50.726;7.080;2023-06-22T13:19:11;8.27;;;7.38;;
27899;SDS011;15243;50.726;7.080;2023-06-22T13:21:38;8.15;;;7.35;;
27899;SDS011;15243;50.726;7.080;2023-06-22T13:24:06;9.55;;;6.75;;
27899;SDS011;15243;50.726;7.080;2023-06-22T13:26:33;7.00;;;6.35;;
27899;SDS011;15243;50.726;7.080;2023-06-22T13:29:00;7.70;;;6.60;;
27899;SDS011;15243;50.726;7.080;2023-06-22T13:31:27;6.82;;;6.05;;
27899;SDS011;15243;50.726;7.080;2023-06-22T13:33:54;6.93;;;6.07;;
27899;SDS011;15243;50.726;7.080;2023-06-22T13:36:21;6.85;;;5.70;;
27899;SDS011;15243;50.726;7.080;2023-06-22T13:38:49;5.15;;;4.63;;
27899;SDS011;15243;50.726;7.080;2023-06-22T13:41:16;4.85;;;4.40;;
27899;SDS011;15243;50.726;7.080;2023-06-22T13:43:43;4.68;;;3.45;;
27899;SDS011;15243;50.726;7.080;2023-06-22T13:46:10;4.35;;;3.30;;
27899;SDS011;15243;50.726;7.080;2023-06-22T13:48:37;3.78;;;3.42;;
27899;SDS011;15243;50.726;7.080;2023-06-22T13:51:04;4.35;;;3.83;;
27899;SDS011;15243;50.726;7.080;2023-06-22T13:53:31;4.95;;;3.85;;
27899;SDS011;15243;50.726;7.080;2023-06-22T13:55:58;4.13;;;3.72;;
27899;SDS011;15243;50.726;7.080;2023-06-22T13:58:25;5.18;;;3.88;;
27899;SDS011;15243;50.726;7.080;2023-06-22T14:00:52;5.22;;;4.40;;
27899;SDS011;15243;50.726;7.080;2023-06-22T14:03:22;6.55;;;5.50;;
27899;SDS011;15243;50.726;7.080;2023-06-22T14:05:49;8.55;;;5.20;;
27899;SDS011;15243;50.726;7.080;2023-06-22T14:08:16;7.90;;;6.13;;
27899;SDS011;15243;50.726;7.080;2023-06-22T14:11:03;6.57;;;5.95;;
27899;SDS011;15243;50.726;7.080;2023-06-22T14:13:30;7.00;;;6.30;;
27899;SDS011;15243;50.726;7.080;2023-06-22T14:15:57;9.00;;;6.82;;
27899;SDS011;15243;50.726;7.080;2023-06-22T14:18:24;8.20;;;6.68;;
27899;SDS011;15243;50.726;7.080;2023-06-22T14:20:51;8.45;;;5.57;;
27899;SDS011;15243;50.726;7.080;2023-06-22T14:23:18;7.38;;;6.15;;
27899;SDS011;15243;50.726;7.080;2023-06-22T14:25:45;6.40;;;5.63;;
27899;SDS011;15243;50.726;7.080;2023-06-22T14:28:12;6.18;;;5.57;;
27899;SDS011;15243;50.726;7.080;2023-06-22T14:30:40;8.57;;;5.70;;
27899;SDS011;15243;50.726;7.080;2023-06-22T14:33:06;7.00;;;6.10;;
27899;SDS011;15243;50.726;7.080;2023-06-22T14:35:34;9.55;;;6.50;;
27899;SDS011;15243;50.726;7.080;2023-06-22T14:38:01;12.23;;;7.50;;
27899;SDS011;15243;50.726;7.080;2023-06-22T14:40:28;19.55;;;8.38;;
27899;SDS011;15243;50.726;7.080;2023-06-22T14:43:01;22.23;;;9.02;;
27899;SDS011;15243;50.726;7.080;2023-06-22T14:45:28;15.90;;;8.80;;
27899;SDS011;15243;50.726;7.080;2023-06-22T14:47:55;17.23;;;9.30;;
27899;SDS011;15243;50.726;7.080;2023-06-22T14:50:22;14.63;;;8.18;;